sensor_id;sensor_type;location;lat;lon;timestamp;pressure;altitude;pressure_sealevel;temperature;humidity
5126;BME280;63008;53.112;8.896;2023-02-22T00:00:34;101613.22;;;10.09;94.52
5126;BME280;63008;53.112;8.896;2023-02-22T00:02:51;101607.94;;;10.13;94.48
5126;BME280;63008;53.112;8.896;2023-02-22T00:04:54;101613.91;;;10.15;94.32
5126;BME280;63008;53.112;8.896;2023-02-22T00:06:55;101612.47;;;10.17;93.98
5126;BME280;63008;53.112;8.896;2023-02-22T00:09:00;101613.22;;;10.09;94.41
5126;BME280;63008;53.112;8.896;2023-02-22T00:11:04;101608.09;;;10.16;94.29
5126;BME280;63008;53.112;8.896;2023-02-22T00:13:09;101607.47;;;10.19;93.86
5126;BME280;63008;53.112;8.896;2023-02-22T00:15:13;101608.31;;;10.20;93.80
5126;BME280;63008;53.112;8.896;2023-02-22T00:17:14;101611.16;;;10.15;93.96
5126;BME280;63008;53.112;8.896;2023-02-22T00:19:15;101603.38;;;10.08;94.57
5126;BME280;63008;53.112;8.896;2023-02-22T00:21:17;101604.28;;;10.04;94.43
5126;BME280;63008;53.112;8.896;2023-02-22T00:23:20;101602.75;;;9.98;94.91
5126;BME280;63008;53.112;8.896;2023-02-22T00:25:23;101599.94;;;10.03;94.85
5126;BME280;63008;53.112;8.896;2023-02-22T00:27:24;101604.06;;;10.00;95.04
5126;BME280;63008;53.112;8.896;2023-02-22T00:29:25;101596.34;;;10.02;94.76
5126;BME280;63008;53.112;8.896;2023-02-22T00:31:26;101596.34;;;10.02;94.56
5126;BME280;63008;53.112;8.896;2023-02-22T00:33:27;101604.88;;;10.01;94.74
5126;BME280;63008;53.112;8.896;2023-02-22T00:35:29;101590.28;;;10.05;94.53
5126;BME280;63008;53.112;8.896;2023-02-22T00:37:30;101596.44;;;10.11;94.37
5126;BME280;63008;53.112;8.896;2023-02-22T00:39:31;101591.78;;;10.11;94.25
5126;BME280;63008;53.112;8.896;2023-02-22T00:41:32;101594.50;;;10.11;94.13
5126;BME280;63008;53.112;8.896;2023-02-22T00:43:33;101593.53;;;10.07;94.29
5126;BME280;63008;53.112;8.896;2023-02-22T00:45:35;101586.41;;;10.06;94.25
5126;BME280;63008;53.112;8.896;2023-02-22T00:47:36;101590.34;;;10.14;94.08
5126;BME280;63008;53.112;8.896;2023-02-22T00:49:37;101591.78;;;10.11;93.97
5126;BME280;63008;53.112;8.896;2023-02-22T00:51:39;101587.81;;;10.04;94.24
5126;BME280;63008;53.112;8.896;2023-02-22T00:53:40;101592.19;;;10.05;94.40
5126;BME280;63008;53.112;8.896;2023-02-22T00:55:44;101583.16;;;10.04;94.39
5126;BME280;63008;53.112;8.896;2023-02-22T00:57:45;101595.22;;;10.03;94.46
5126;BME280;63008;53.112;8.896;2023-02-22T00:59:46;101586.50;;;10.01;94.51
5126;BME280;63008;53.112;8.896;2023-02-22T01:01:47;101580.81;;;9.98;94.71
5126;BME280;63008;53.112;8.896;2023-02-22T01:03:48;101581.94;;;9.97;94.70
5126;BME280;63008;53.112;8.896;2023-02-22T01:05:49;101586.22;;;10.03;94.66
5126;BME280;63008;53.112;8.896;2023-02-22T01:07:50;101579.50;;;9.95;94.83
5126;BME280;63008;53.112;8.896;2023-02-22T01:09:51;101580.63;;;9.94;94.94
5126;BME280;63008;53.112;8.896;2023-02-22T01:11:54;101576.13;;;9.98;94.63
5126;BME280;63008;53.112;8.896;2023-02-22T01:13:55;101578.38;;;9.96;95.20
5126;BME280;63008;53.112;8.896;2023-02-22T01:15:57;101569.16;;;9.92;95.22
5126;BME280;63008;53.112;8.896;2023-02-22T01:18:00;101570.44;;;9.95;94.82
5126;BME280;63008;53.112;8.896;2023-02-22T01:20:02;101565.16;;;9.98;94.79
5126;BME280;63008;53.112;8.896;2023-02-22T01:22:04;101561.00;;;10.01;94.87
5126;BME280;63008;53.112;8.896;2023-02-22T01:24:05;101564.56;;;10.01;94.46
5126;BME280;63008;53.112;8.896;2023-02-22T01:26:06;101565.06;;;10.03;94.40
5126;BME280;63008;53.112;8.896;2023-02-22T01:28:07;101567.50;;;10.05;94.29
5126;BME280;63008;53.112;8.896;2023-02-22T01:30:11;101561.22;;;10.04;94.35
5126;BME280;63008;53.112;8.896;2023-02-22T01:32:13;101556.84;;;10.03;94.33
5126;BME280;63008;53.112;8.896;2023-02-22T01:34:15;101562.13;;;10.00;94.44
5126;BME280;63008;53.112;8.896;2023-02-22T01:36:17;101552.56;;;9.97;94.15
5126;BME280;63008;53.112;8.896;2023-02-22T01:38:18;101552.91;;;9.96;94.62
5126;BME280;63008;53.112;8.896;2023-02-22T01:40:29;101547.28;;;10.01;94.26
5126;BME280;63008;53.112;8.896;2023-02-22T01:42:30;101545.47;;;9.96;94.39
5126;BME280;63008;53.112;8.896;2023-02-22T01:44:35;101544.69;;;9.96;94.39
5126;BME280;63008;53.112;8.896;2023-02-22T01:46:36;101544.34;;;9.97;94.39
5126;BME280;63008;53.112;8.896;2023-02-22T01:49:02;101536.44;;;9.96;94.03
5126;BME280;63008;53.112;8.896;2023-02-22T01:53:12;101536.75;;;9.94;94.32
5126;BME280;63008;53.112;8.896;2023-02-22T01:55:14;101536.97;;;9.84;94.54
5126;BME280;63008;53.112;8.896;2023-02-22T01:57:21;101534.06;;;9.81;94.75
5126;BME280;63008;53.112;8.896;2023-02-22T01:59:23;101534.97;;;9.76;95.17
5126;BME280;63008;53.112;8.896;2023-02-22T02:01:26;101534.28;;;9.71;95.59
5126;BME280;63008;53.112;8.896;2023-02-22T02:03:31;101533.66;;;9.74;95.38
5126;BME280;63008;53.112;8.896;2023-02-22T02:05:34;101532.66;;;9.70;95.37
5126;BME280;63008;53.112;8.896;2023-02-22T02:07:37;101526.38;;;9.69;95.65
5126;BME280;63008;53.112;8.896;2023-02-22T02:09:42;101531.53;;;9.71;95.47
5126;BME280;63008;53.112;8.896;2023-02-22T02:11:44;101529.00;;;9.74;95.55
5126;BME280;63008;53.112;8.896;2023-02-22T02:13:49;101519.44;;;9.72;95.43
5126;BME280;63008;53.112;8.896;2023-02-22T02:15:55;101518.66;;;9.71;95.40
5126;BME280;63008;53.112;8.896;2023-02-22T02:18:00;101516.00;;;9.66;95.36
5126;BME280;63008;53.112;8.896;2023-02-22T02:20:09;101510.53;;;9.66;95.31
5126;BME280;63008;53.112;8.896;2023-02-22T02:24:50;101509.34;;;9.59;95.78
5126;BME280;63008;53.112;8.896;2023-02-22T02:27:13;101510.16;;;9.59;95.91
5126;BME280;63008;53.112;8.896;2023-02-22T02:32:30;101515.34;;;9.61;95.63
5126;BME280;63008;53.112;8.896;2023-02-22T02:34:44;101507.13;;;9.61;95.69
5126;BME280;63008;53.112;8.896;2023-02-22T02:37:31;101511.16;;;9.63;95.64
5126;BME280;63008;53.112;8.896;2023-02-22T02:39:52;101504.69;;;9.59;95.66
5126;BME280;63008;53.112;8.896;2023-02-22T02:41:58;101503.56;;;9.60;95.71
5126;BME280;63008;53.112;8.896;2023-02-22T02:44:25;101499.19;;;9.59;95.56
5126;BME280;63008;53.112;8.896;2023-02-22T02:46:37;101504.38;;;9.61;95.67
5126;BME280;63008;53.112;8.896;2023-02-22T02:48:48;101497.44;;;9.63;95.59
5126;BME280;63008;53.112;8.896;2023-02-22T02:50:54;101492.47;;;9.65;95.47
5126;BME280;63008;53.112;8.896;2023-02-22T02:52:59;101496.53;;;9.68;95.22
5126;BME280;63008;53.112;8.896;2023-02-22T02:55:03;101489.56;;;9.62;95.38
5126;BME280;63008;53.112;8.896;2023-02-22T02:57:05;101486.31;;;9.60;95.52
5126;BME280;63008;53.112;8.896;2023-02-22T02:59:26;101482.13;;;9.62;95.33
5126;BME280;63008;53.112;8.896;2023-02-22T03:04:23;101484.06;;;9.62;95.08
5126;BME280;63008;53.112;8.896;2023-02-22T03:06:53;101483.50;;;9.51;95.73
5126;BME280;63008;53.112;8.896;2023-02-22T03:11:43;101479.34;;;9.40;96.50
5126;BME280;63008;53.112;8.896;2023-02-22T03:16:16;101474.91;;;9.31;96.76
5126;BME280;63008;53.112;8.896;2023-02-22T03:18:26;101469.53;;;9.39;96.70
5126;BME280;63008;53.112;8.896;2023-02-22T03:20:40;101470.66;;;9.38;96.66
5126;BME280;63008;53.112;8.896;2023-02-22T03:22:50;101466.47;;;9.41;96.61
5126;BME280;63008;53.112;8.896;2023-02-22T03:24:58;101470.22;;;9.45;96.63
5126;BME280;63008;53.112;8.896;2023-02-22T03:27:11;101467.78;;;9.43;96.60
5126;BME280;63008;53.112;8.896;2023-02-22T03:29:16;101467.78;;;9.43;96.70
5126;BME280;63008;53.112;8.896;2023-02-22T03:31:28;101466.53;;;9.49;96.67
5126;BME280;63008;53.112;8.896;2023-02-22T03:33:39;101459.91;;;9.28;96.95
5126;BME280;63008;53.112;8.896;2023-02-22T03:35:45;101463.34;;;9.34;97.34
5126;BME280;63008;53.112;8.896;2023-02-22T03:37:52;101461.72;;;9.33;97.24
5126;BME280;63008;53.112;8.896;2023-02-22T03:39:55;101459.19;;;9.36;97.28
5126;BME280;63008;53.112;8.896;2023-02-22T03:42:03;101459.19;;;9.36;97.08
5126;BME280;63008;53.112;8.896;2023-02-22T03:44:14;101449.53;;;9.39;97.07
5126;BME280;63008;53.112;8.896;2023-02-22T03:46:16;101451.25;;;9.35;96.85
5126;BME280;63008;53.112;8.896;2023-02-22T03:50:38;101453.22;;;9.21;98.24
5126;BME280;63008;53.112;8.896;2023-02-22T03:52:41;101456.66;;;9.26;97.87
5126;BME280;63008;53.112;8.896;2023-02-22T03:54:43;101445.09;;;9.29;97.72
5126;BME280;63008;53.112;8.896;2023-02-22T03:56:49;101451.59;;;9.33;97.43
5126;BME280;63008;53.112;8.896;2023-02-22T03:58:53;101454.00;;;9.35;97.45
5126;BME280;63008;53.112;8.896;2023-02-22T04:00:54;101448.31;;;9.31;97.29
5126;BME280;63008;53.112;8.896;2023-02-22T04:02:56;101460.81;;;9.24;97.58
5126;BME280;63008;53.112;8.896;2023-02-22T04:04:57;101455.16;;;9.20;97.81
5126;BME280;63008;53.112;8.896;2023-02-22T04:06:59;101458.28;;;9.27;97.68
5126;BME280;63008;53.112;8.896;2023-02-22T04:09:00;101456.56;;;9.18;97.75
5126;BME280;63008;53.112;8.896;2023-02-22T04:11:01;101452.09;;;9.22;97.64
5126;BME280;63008;53.112;8.896;2023-02-22T04:13:02;101459.41;;;9.26;97.83
5126;BME280;63008;53.112;8.896;2023-02-22T04:15:07;101452.91;;;9.22;97.74
5126;BME280;63008;53.112;8.896;2023-02-22T04:17:08;101454.66;;;9.18;97.89
5126;BME280;63008;53.112;8.896;2023-02-22T04:19:09;101456.28;;;9.19;97.79
5126;BME280;63008;53.112;8.896;2023-02-22T04:21:10;101457.28;;;9.23;97.83
5126;BME280;63008;53.112;8.896;2023-02-22T04:23:11;101461.34;;;9.26;97.46
5126;BME280;63008;53.112;8.896;2023-02-22T04:25:13;101454.25;;;9.25;97.17
5126;BME280;63008;53.112;8.896;2023-02-22T04:27:14;101452.72;;;9.19;97.30
5126;BME280;63008;53.112;8.896;2023-02-22T04:29:15;101453.13;;;9.12;97.64
5126;BME280;63008;53.112;8.896;2023-02-22T04:31:16;101446.53;;;9.13;97.58
5126;BME280;63008;53.112;8.896;2023-02-22T04:33:17;101458.41;;;8.96;97.86
5126;BME280;63008;53.112;8.896;2023-02-22T04:35:18;101459.78;;;8.85;98.54
5126;BME280;63008;53.112;8.896;2023-02-22T04:37:19;101450.94;;;8.88;98.74
5126;BME280;63008;53.112;8.896;2023-02-22T04:39:20;101454.38;;;8.80;98.79
5126;BME280;63008;53.112;8.896;2023-02-22T04:41:21;101452.75;;;8.79;99.08
5126;BME280;63008;53.112;8.896;2023-02-22T04:43:22;101447.19;;;8.84;98.86
5126;BME280;63008;53.112;8.896;2023-02-22T04:45:23;101450.72;;;8.84;98.35
5126;BME280;63008;53.112;8.896;2023-02-22T04:47:24;101458.34;;;8.74;98.44
5126;BME280;63008;53.112;8.896;2023-02-22T04:49:25;101448.63;;;8.68;98.61
5126;BME280;63008;53.112;8.896;2023-02-22T04:51:26;101449.75;;;8.67;98.66
5126;BME280;63008;53.112;8.896;2023-02-22T04:53:27;101452.16;;;8.68;98.59
5126;BME280;63008;53.112;8.896;2023-02-22T04:55:28;101453.59;;;8.66;98.24
5126;BME280;63008;53.112;8.896;2023-02-22T04:57:29;101449.03;;;8.61;98.16
5126;BME280;63008;53.112;8.896;2023-02-22T04:59:31;101446.06;;;8.58;98.10
5126;BME280;63008;53.112;8.896;2023-02-22T05:01:33;101443.72;;;8.51;98.30
5126;BME280;63008;53.112;8.896;2023-02-22T05:03:37;101443.84;;;8.46;98.40
5126;BME280;63008;53.112;8.896;2023-02-22T05:05:38;101445.06;;;8.40;98.26
5126;BME280;63008;53.112;8.896;2023-02-22T05:07:39;101447.28;;;8.38;98.60
5126;BME280;63008;53.112;8.896;2023-02-22T05:09:40;101447.19;;;8.30;98.39
5126;BME280;63008;53.112;8.896;2023-02-22T05:11:41;101442.38;;;8.22;98.43
5126;BME280;63008;53.112;8.896;2023-02-22T05:13:42;101443.06;;;8.14;98.61
5126;BME280;63008;53.112;8.896;2023-02-22T05:15:43;101434.91;;;8.09;99.31
5126;BME280;63008;53.112;8.896;2023-02-22T05:17:44;101438.78;;;8.08;99.35
5126;BME280;63008;53.112;8.896;2023-02-22T05:19:45;101439.81;;;8.12;99.26
5126;BME280;63008;53.112;8.896;2023-02-22T05:21:47;101441.81;;;8.06;99.28
5126;BME280;63008;53.112;8.896;2023-02-22T05:23:48;101434.72;;;8.05;98.97
5126;BME280;63008;53.112;8.896;2023-02-22T05:25:49;101429.16;;;8.10;98.94
5126;BME280;63008;53.112;8.896;2023-02-22T05:27:52;101433.81;;;8.10;98.73
5126;BME280;63008;53.112;8.896;2023-02-22T05:29:53;101426.81;;;8.04;98.92
5126;BME280;63008;53.112;8.896;2023-02-22T05:31:54;101429.34;;;8.00;99.14
5126;BME280;63008;53.112;8.896;2023-02-22T05:33:55;101428.03;;;7.98;99.33
5126;BME280;63008;53.112;8.896;2023-02-22T05:35:57;101424.28;;;7.94;99.43
5126;BME280;63008;53.112;8.896;2023-02-22T05:37:58;101417.72;;;7.95;99.58
5126;BME280;63008;53.112;8.896;2023-02-22T05:40:01;101417.06;;;7.84;99.79
5126;BME280;63008;53.112;8.896;2023-02-22T05:42:03;101420.81;;;7.88;100.00
5126;BME280;63008;53.112;8.896;2023-02-22T05:44:04;101422.59;;;7.79;100.00
5126;BME280;63008;53.112;8.896;2023-02-22T05:46:05;101413.00;;;7.82;100.00
5126;BME280;63008;53.112;8.896;2023-02-22T05:48:06;101413.50;;;7.84;100.00
5126;BME280;63008;53.112;8.896;2023-02-22T05:50:08;101409.38;;;7.86;100.00
5126;BME280;63008;53.112;8.896;2023-02-22T05:52:09;101409.44;;;7.81;100.00
5126;BME280;63008;53.112;8.896;2023-02-22T05:54:10;101414.78;;;7.73;100.00
5126;BME280;63008;53.112;8.896;2023-02-22T05:56:11;101401.94;;;7.73;100.00
5126;BME280;63008;53.112;8.896;2023-02-22T05:58:12;101400.13;;;7.82;100.00
5126;BME280;63008;53.112;8.896;2023-02-22T06:00:26;101399.81;;;7.70;100.00
5126;BME280;63008;53.112;8.896;2023-02-22T06:02:27;101398.72;;;7.71;100.00
5126;BME280;63008;53.112;8.896;2023-02-22T06:04:28;101392.50;;;7.66;100.00
5126;BME280;63008;53.112;8.896;2023-02-22T06:06:30;101392.28;;;7.62;100.00
5126;BME280;63008;53.112;8.896;2023-02-22T06:08:31;101389.38;;;7.59;100.00
5126;BME280;63008;53.112;8.896;2023-02-22T06:10:32;101386.63;;;7.59;100.00
5126;BME280;63008;53.112;8.896;2023-02-22T06:12:33;101396.00;;;7.53;100.00
5126;BME280;63008;53.112;8.896;2023-02-22T06:14:34;101382.28;;;7.58;100.00
5126;BME280;63008;53.112;8.896;2023-02-22T06:16:35;101394.47;;;7.47;100.00
5126;BME280;63008;53.112;8.896;2023-02-22T06:18:36;101390.50;;;7.39;100.00
5126;BME280;63008;53.112;8.896;2023-02-22T06:20:37;101390.72;;;7.43;100.00
5126;BME280;63008;53.112;8.896;2023-02-22T06:22:38;101395.13;;;7.39;100.00
5126;BME280;63008;53.112;8.896;2023-02-22T06:24:40;101396.59;;;7.50;100.00
5126;BME280;63008;53.112;8.896;2023-02-22T06:26:41;101396.31;;;7.51;100.00
5126;BME280;63008;53.112;8.896;2023-02-22T06:28:42;101387.06;;;7.47;100.00
5126;BME280;63008;53.112;8.896;2023-02-22T06:30:44;101385.78;;;7.45;100.00
5126;BME280;63008;53.112;8.896;2023-02-22T06:32:45;101384.94;;;7.44;100.00
5126;BME280;63008;53.112;8.896;2023-02-22T06:34:46;101379.84;;;7.38;100.00
5126;BME280;63008;53.112;8.896;2023-02-22T06:36:48;101379.94;;;7.33;100.00
5126;BME280;63008;53.112;8.896;2023-02-22T06:38:49;101381.28;;;7.17;100.00
5126;BME280;63008;53.112;8.896;2023-02-22T06:40:50;101378.53;;;7.17;100.00
5126;BME280;63008;53.112;8.896;2023-02-22T06:42:51;101370.22;;;7.27;100.00
5126;BME280;63008;53.112;8.896;2023-02-22T06:44:53;101373.47;;;7.29;100.00
5126;BME280;63008;53.112;8.896;2023-02-22T06:46:54;101376.94;;;7.34;100.00
5126;BME280;63008;53.112;8.896;2023-02-22T06:48:55;101381.78;;;7.37;100.00
5126;BME280;63008;53.112;8.896;2023-02-22T06:50:59;101383.91;;;7.40;100.00
5126;BME280;63008;53.112;8.896;2023-02-22T06:53:00;101373.41;;;7.47;100.00
5126;BME280;63008;53.112;8.896;2023-02-22T06:55:01;101381.31;;;7.49;100.00
5126;BME280;63008;53.112;8.896;2023-02-22T06:57:01;101370.31;;;7.54;100.00
5126;BME280;63008;53.112;8.896;2023-02-22T06:59:03;101371.88;;;7.60;100.00
5126;BME280;63008;53.112;8.896;2023-02-22T07:01:04;101377.00;;;7.61;100.00
5126;BME280;63008;53.112;8.896;2023-02-22T07:03:07;101374.28;;;7.61;100.00
5126;BME280;63008;53.112;8.896;2023-02-22T07:05:10;101371.69;;;7.70;100.00
5126;BME280;63008;53.112;8.896;2023-02-22T07:07:12;101367.66;;;7.67;100.00
5126;BME280;63008;53.112;8.896;2023-02-22T07:09:14;101385.19;;;7.80;100.00
5126;BME280;63008;53.112;8.896;2023-02-22T07:11:16;101382.53;;;7.75;100.00
5126;BME280;63008;53.112;8.896;2023-02-22T07:13:17;101383.88;;;7.91;100.00
5126;BME280;63008;53.112;8.896;2023-02-22T07:15:20;101381.78;;;8.01;100.00
5126;BME280;63008;53.112;8.896;2023-02-22T07:17:23;101372.66;;;8.06;100.00
5126;BME280;63008;53.112;8.896;2023-02-22T07:19:24;101381.47;;;8.03;100.00
5126;BME280;63008;53.112;8.896;2023-02-22T07:21:26;101383.31;;;8.07;100.00
5126;BME280;63008;53.112;8.896;2023-02-22T07:23:27;101376.84;;;8.17;100.00
5126;BME280;63008;53.112;8.896;2023-02-22T07:25:28;101380.69;;;8.16;100.00
5126;BME280;63008;53.112;8.896;2023-02-22T07:27:29;101386.03;;;8.07;100.00
5126;BME280;63008;53.112;8.896;2023-02-22T07:29:30;101386.84;;;8.08;100.00
5126;BME280;63008;53.112;8.896;2023-02-22T07:31:37;101383.06;;;8.22;100.00
5126;BME280;63008;53.112;8.896;2023-02-22T07:33:38;101385.59;;;8.32;100.00
5126;BME280;63008;53.112;8.896;2023-02-22T07:35:44;101379.22;;;8.37;100.00
5126;BME280;63008;53.112;8.896;2023-02-22T07:37:46;101385.06;;;8.44;99.45
5126;BME280;63008;53.112;8.896;2023-02-22T07:39:47;101376.69;;;8.40;99.20
5126;BME280;63008;53.112;8.896;2023-02-22T07:41:48;101378.31;;;8.41;99.13
5126;BME280;63008;53.112;8.896;2023-02-22T07:43:49;101368.88;;;8.34;99.60
5126;BME280;63008;53.112;8.896;2023-02-22T07:45:52;101379.94;;;8.42;99.35
5126;BME280;63008;53.112;8.896;2023-02-22T07:47:54;101376.28;;;8.47;99.29
5126;BME280;63008;53.112;8.896;2023-02-22T07:49:55;101375.47;;;8.46;98.98
5126;BME280;63008;53.112;8.896;2023-02-22T07:51:56;101367.97;;;8.52;98.73
5126;BME280;63008;53.112;8.896;2023-02-22T07:53:57;101365.53;;;8.50;98.69
5126;BME280;63008;53.112;8.896;2023-02-22T07:56:00;101367.56;;;8.58;98.55
5126;BME280;63008;53.112;8.896;2023-02-22T07:58:03;101368.16;;;8.42;98.61
5126;BME280;63008;53.112;8.896;2023-02-22T08:00:05;101372.44;;;8.48;98.83
5126;BME280;63008;53.112;8.896;2023-02-22T08:02:12;101367.78;;;8.35;99.17
5126;BME280;63008;53.112;8.896;2023-02-22T08:04:15;101369.00;;;8.42;99.22
5126;BME280;63008;53.112;8.896;2023-02-22T08:06:16;101365.25;;;8.38;99.32
5126;BME280;63008;53.112;8.896;2023-02-22T08:08:17;101371.50;;;8.39;99.61
5126;BME280;63008;53.112;8.896;2023-02-22T08:10:23;101367.97;;;8.38;99.82
5126;BME280;63008;53.112;8.896;2023-02-22T08:12:24;101362.28;;;8.48;99.92
5126;BME280;63008;53.112;8.896;2023-02-22T08:14:26;101363.41;;;8.47;99.57
5126;BME280;63008;53.112;8.896;2023-02-22T08:16:27;101368.88;;;8.47;99.41
5126;BME280;63008;53.112;8.896;2023-02-22T08:18:28;101366.75;;;8.58;99.67
5126;BME280;63008;53.112;8.896;2023-02-22T08:20:29;101361.09;;;8.54;99.00
5126;BME280;63008;53.112;8.896;2023-02-22T08:22:30;101358.50;;;8.71;98.75
5126;BME280;63008;53.112;8.896;2023-02-22T08:24:31;101356.22;;;8.65;98.58
5126;BME280;63008;53.112;8.896;2023-02-22T08:26:32;101354.97;;;8.71;98.42
5126;BME280;63008;53.112;8.896;2023-02-22T08:28:34;101359.81;;;8.87;98.07
5126;BME280;63008;53.112;8.896;2023-02-22T08:30:36;101354.78;;;8.81;97.38
5126;BME280;63008;53.112;8.896;2023-02-22T08:32:37;101353.63;;;8.95;97.16
5126;BME280;63008;53.112;8.896;2023-02-22T08:34:38;101355.44;;;9.00;96.20
5126;BME280;63008;53.112;8.896;2023-02-22T08:36:41;101351.25;;;9.02;95.99
5126;BME280;63008;53.112;8.896;2023-02-22T08:38:42;101347.41;;;9.03;95.54
5126;BME280;63008;53.112;8.896;2023-02-22T08:40:43;101348.34;;;8.99;94.43
5126;BME280;63008;53.112;8.896;2023-02-22T08:42:44;101344.84;;;9.06;94.29
5126;BME280;63008;53.112;8.896;2023-02-22T08:44:48;101345.84;;;9.10;94.16
5126;BME280;63008;53.112;8.896;2023-02-22T08:46:49;101347.53;;;9.20;93.81
5126;BME280;63008;53.112;8.896;2023-02-22T08:48:51;101348.72;;;9.27;92.59
5126;BME280;63008;53.112;8.896;2023-02-22T08:50:52;101347.38;;;9.38;92.69
5126;BME280;63008;53.112;8.896;2023-02-22T08:52:57;101346.50;;;9.29;92.37
5126;BME280;63008;53.112;8.896;2023-02-22T08:54:58;101341.28;;;9.41;92.69
5126;BME280;63008;53.112;8.896;2023-02-22T08:56:59;101345.63;;;9.42;91.43
5126;BME280;63008;53.112;8.896;2023-02-22T08:59:00;101338.78;;;9.53;91.66
5126;BME280;63008;53.112;8.896;2023-02-22T09:01:02;101341.59;;;9.62;90.56
5126;BME280;63008;53.112;8.896;2023-02-22T09:03:07;101345.81;;;9.68;90.47
5126;BME280;63008;53.112;8.896;2023-02-22T09:05:11;101347.13;;;9.70;90.29
5126;BME280;63008;53.112;8.896;2023-02-22T09:07:13;101344.25;;;9.75;89.66
5126;BME280;63008;53.112;8.896;2023-02-22T09:09:14;101339.88;;;9.74;88.82
5126;BME280;63008;53.112;8.896;2023-02-22T09:11:18;101338.75;;;9.75;89.45
5126;BME280;63008;53.112;8.896;2023-02-22T09:13:18;101337.94;;;9.75;89.41
5126;BME280;63008;53.112;8.896;2023-02-22T09:15:20;101334.44;;;9.83;89.15
5126;BME280;63008;53.112;8.896;2023-02-22T09:17:21;101340.13;;;9.86;88.08
5126;BME280;63008;53.112;8.896;2023-02-22T09:19:22;101339.50;;;9.89;88.33
5126;BME280;63008;53.112;8.896;2023-02-22T09:21:23;101341.47;;;9.97;88.42
5126;BME280;63008;53.112;8.896;2023-02-22T09:23:24;101337.16;;;10.05;89.03
5126;BME280;63008;53.112;8.896;2023-02-22T09:25:25;101336.22;;;10.09;87.79
5126;BME280;63008;53.112;8.896;2023-02-22T09:27:26;101343.06;;;9.98;87.57
5126;BME280;63008;53.112;8.896;2023-02-22T09:29:27;101333.13;;;10.02;86.98
5126;BME280;63008;53.112;8.896;2023-02-22T09:31:28;101338.00;;;10.05;87.67
5126;BME280;63008;53.112;8.896;2023-02-22T09:33:29;101329.16;;;10.17;87.09
5126;BME280;63008;53.112;8.896;2023-02-22T09:35:31;101331.28;;;10.20;86.88
5126;BME280;63008;53.112;8.896;2023-02-22T09:37:35;101324.00;;;10.24;87.15
5126;BME280;63008;53.112;8.896;2023-02-22T09:39:36;101324.03;;;10.32;87.05
5126;BME280;63008;53.112;8.896;2023-02-22T09:42:02;101333.47;;;10.48;87.08
5126;BME280;63008;53.112;8.896;2023-02-22T09:44:44;101331.66;;;10.44;86.02
5126;BME280;63008;53.112;8.896;2023-02-22T09:46:48;101325.88;;;10.45;85.39
5126;BME280;63008;53.112;8.896;2023-02-22T09:49:01;101322.31;;;10.53;85.57
5126;BME280;63008;53.112;8.896;2023-02-22T09:51:10;101325.44;;;10.69;84.57
5126;BME280;63008;53.112;8.896;2023-02-22T09:53:34;101327.09;;;10.87;83.56
5126;BME280;63008;53.112;8.896;2023-02-22T09:55:45;101326.13;;;11.08;83.41
5126;BME280;63008;53.112;8.896;2023-02-22T09:57:48;101327.25;;;11.24;82.10
5126;BME280;63008;53.112;8.896;2023-02-22T10:00:15;101330.00;;;11.15;81.88
5126;BME280;63008;53.112;8.896;2023-02-22T10:02:34;101330.00;;;11.58;81.46
5126;BME280;63008;53.112;8.896;2023-02-22T10:04:41;101334.47;;;11.88;80.09
5126;BME280;63008;53.112;8.896;2023-02-22T10:07:00;101332.41;;;12.14;78.54
5126;BME280;63008;53.112;8.896;2023-02-22T10:09:05;101324.44;;;12.29;77.78
5126;BME280;63008;53.112;8.896;2023-02-22T10:19:21;101307.13;;;12.58;75.22
5126;BME280;63008;53.112;8.896;2023-02-22T10:21:32;101308.78;;;12.50;75.94
5126;BME280;63008;53.112;8.896;2023-02-22T10:24:07;101302.88;;;12.31;76.60
5126;BME280;63008;53.112;8.896;2023-02-22T10:26:15;101311.31;;;12.35;76.11
5126;BME280;63008;53.112;8.896;2023-02-22T10:28:19;101301.78;;;12.24;76.29
5126;BME280;63008;53.112;8.896;2023-02-22T10:30:28;101304.78;;;12.10;77.27
5126;BME280;63008;53.112;8.896;2023-02-22T10:32:36;101297.47;;;12.14;77.45
5126;BME280;63008;53.112;8.896;2023-02-22T10:34:46;101300.19;;;12.23;77.64
5126;BME280;63008;53.112;8.896;2023-02-22T10:36:53;101305.16;;;12.29;76.79
5126;BME280;63008;53.112;8.896;2023-02-22T10:39:04;101306.63;;;12.27;77.63
5126;BME280;63008;53.112;8.896;2023-02-22T10:41:26;101290.38;;;12.42;76.18
5126;BME280;63008;53.112;8.896;2023-02-22T10:43:29;101291.06;;;12.60;75.77
5126;BME280;63008;53.112;8.896;2023-02-22T10:45:32;101285.88;;;12.38;77.37
5126;BME280;63008;53.112;8.896;2023-02-22T10:47:34;101286.31;;;12.40;76.42
5126;BME280;63008;53.112;8.896;2023-02-22T10:49:38;101280.81;;;12.40;76.50
5126;BME280;63008;53.112;8.896;2023-02-22T10:51:40;101278.38;;;12.38;76.20
5126;BME280;63008;53.112;8.896;2023-02-22T10:53:41;101281.25;;;12.21;77.12
5126;BME280;63008;53.112;8.896;2023-02-22T10:56:04;101284.16;;;12.54;76.48
5126;BME280;63008;53.112;8.896;2023-02-22T10:58:07;101281.28;;;12.71;75.62
5126;BME280;63008;53.112;8.896;2023-02-22T11:00:33;101272.53;;;12.89;75.89
5126;BME280;63008;53.112;8.896;2023-02-22T11:02:36;101263.47;;;13.09;74.33
5126;BME280;63008;53.112;8.896;2023-02-22T11:04:45;101269.38;;;13.19;73.80
5126;BME280;63008;53.112;8.896;2023-02-22T11:06:49;101265.84;;;13.19;75.60
5126;BME280;63008;53.112;8.896;2023-02-22T11:11:23;101264.97;;;13.06;75.45
5126;BME280;63008;53.112;8.896;2023-02-22T11:13:30;101260.56;;;13.26;74.64
5126;BME280;63008;53.112;8.896;2023-02-22T11:15:33;101255.69;;;13.43;72.84
5126;BME280;63008;53.112;8.896;2023-02-22T11:17:35;101257.22;;;13.53;72.95
5126;BME280;63008;53.112;8.896;2023-02-22T11:19:36;101246.59;;;13.75;71.36
5126;BME280;63008;53.112;8.896;2023-02-22T11:21:38;101253.59;;;13.85;71.78
5126;BME280;63008;53.112;8.896;2023-02-22T11:23:41;101256.41;;;14.21;69.83
5126;BME280;63008;53.112;8.896;2023-02-22T11:25:43;101244.78;;;14.39;69.49
5126;BME280;63008;53.112;8.896;2023-02-22T11:27:44;101239.16;;;14.24;70.05
5126;BME280;63008;53.112;8.896;2023-02-22T11:29:46;101235.50;;;14.71;69.81